Murdock, Nebraska
Current Conditions -  °F | °C
As of 10:15 PM on Wednesday 28 Jan 2015 (Local Time) from KPMV Reporting Station
Scattered Clouds Scattered Clouds  
Wind Chill: 36°   Ceiling: Unl
Heat Index: 46°   Visibility: 10mi
Dew Point: 36°   Wind: 29mph
Humidity: 68%   Direction: 320°NW
Pressure: 29.85"   Gusts: 46mph
Location:  40.93°N, 96.28°W
Report Text: KPMV 290415Z AUTO 32025G40KT 10SM SCT022 08/02 A2985 RMK AO2 T00760020
Loading
Personal Weather Stations






























Interactive Weather Map New forecast layout! Learn more

10-Day Weather Forecast

Advertisements
Track Severe Weather on mobile